Annandale On Hudson, New York
Current Conditions -  °F | °C
As of 7:03 AM on Friday 24 Oct 2014 (Local Time) from KPOU Reporting Station
Overcast Overcast  
Wind Chill: 49°   Ceiling: 2500
Heat Index: 49°   Visibility: 10mi
Dew Point: 45°   Wind: 3mph
Humidity: 86%   Direction: 320°NW
Pressure: 29.81"   Gusts: NA
Location:  42.01°N, 73.9°W
Report Text: KPOU 241103Z 32003KT 10SM BKN025 OVC034 09/07 A2981 RMK AO2 T00940072
Loading
Personal Weather Stations






























Interactive Weather Map
Tropical Storm Tracking
New forecast layout! Learn more

10-Day Weather Forecast

Advertisements
Track Severe Weather on mobile